createdAt,value
2018-03-21T00:01:55.866Z,-0.55
2018-03-21T00:04:29.442Z,-0.57
2018-03-21T00:07:03.239Z,-0.61
2018-03-21T00:09:36.818Z,-0.57
2018-03-21T00:12:10.402Z,-0.63
2018-03-21T00:14:44.162Z,-0.66
2018-03-21T00:17:17.805Z,-0.66
2018-03-21T00:19:51.405Z,-0.66
2018-03-21T00:22:25.139Z,-0.67
2018-03-21T00:24:58.867Z,-0.65
2018-03-21T00:27:32.679Z,-0.65
2018-03-21T00:30:06.399Z,-0.70
2018-03-21T00:32:39.973Z,-0.76
2018-03-21T00:35:13.817Z,-0.84
2018-03-21T00:37:47.591Z,-0.86
2018-03-21T00:40:21.270Z,-0.81
2018-03-21T00:42:54.844Z,-0.87
2018-03-21T00:45:28.581Z,-0.84
2018-03-21T00:48:02.158Z,-0.80
2018-03-21T00:50:35.996Z,-0.83
2018-03-21T00:53:09.593Z,-0.87
2018-03-21T00:55:43.208Z,-0.90
2018-03-21T00:58:16.715Z,-0.91
2018-03-21T01:00:50.432Z,-0.92
2018-03-21T01:03:24.328Z,-0.94
2018-03-21T01:05:58.033Z,-0.97
2018-03-21T01:08:31.647Z,-1.01
2018-03-21T01:11:05.191Z,-1.07
2018-03-21T01:13:38.831Z,-1.06
2018-03-21T01:16:12.501Z,-1.04
2018-03-21T01:18:46.074Z,-1.03
2018-03-21T01:21:25.763Z,-1.09
2018-03-21T01:23:59.438Z,-1.15
2018-03-21T01:26:33.132Z,-1.17
2018-03-21T01:29:06.914Z,-1.21
2018-03-21T01:31:40.596Z,-1.23
2018-03-21T01:34:14.412Z,-1.23
2018-03-21T01:36:48.080Z,-1.14
2018-03-21T01:39:21.926Z,-0.99
2018-03-21T01:41:55.750Z,-1.04
2018-03-21T01:44:29.541Z,-1.14
2018-03-21T01:47:03.167Z,-1.04
2018-03-21T01:49:36.875Z,-1.07
2018-03-21T01:52:10.463Z,-1.14
2018-03-21T01:54:44.023Z,-1.19
2018-03-21T01:57:17.574Z,-1.11
2018-03-21T01:59:51.111Z,-1.17
2018-03-21T02:02:24.853Z,-1.25
2018-03-21T02:04:58.974Z,-1.33
2018-03-21T02:07:32.508Z,-1.42
2018-03-21T02:10:06.151Z,-1.42
2018-03-21T02:12:39.757Z,-1.44
2018-03-21T02:15:13.339Z,-1.51
2018-03-21T02:17:47.082Z,-1.38
2018-03-21T02:20:20.903Z,-1.36
2018-03-21T02:22:54.681Z,-1.42
2018-03-21T02:25:28.272Z,-1.43
2018-03-21T02:28:01.957Z,-1.46
2018-03-21T02:30:35.703Z,-1.49
2018-03-21T02:33:09.426Z,-1.51
2018-03-21T02:35:43.022Z,-1.57
2018-03-21T02:38:16.671Z,-1.57
2018-03-21T02:40:50.250Z,-1.64
2018-03-21T02:43:24.053Z,-1.66
2018-03-21T02:45:57.634Z,-1.69
2018-03-21T02:48:31.237Z,-1.72
2018-03-21T02:51:04.805Z,-1.72
2018-03-21T02:53:38.330Z,-1.67
2018-03-21T02:56:11.936Z,-1.51
2018-03-21T02:58:45.719Z,-1.47
2018-03-21T03:01:19.312Z,-1.49
2018-03-21T03:03:52.858Z,-1.47
2018-03-21T03:06:26.493Z,-1.49
2018-03-21T03:09:00.045Z,-1.45
2018-03-21T03:11:33.683Z,-1.43
2018-03-21T03:14:07.202Z,-1.46
2018-03-21T03:16:40.844Z,-1.53
2018-03-21T03:19:14.413Z,-1.52
2018-03-21T03:21:47.970Z,-1.53
2018-03-21T03:24:21.733Z,-1.47
2018-03-21T03:26:55.290Z,-1.51
2018-03-21T03:29:29.013Z,-1.52
2018-03-21T03:32:02.597Z,-1.58
2018-03-21T03:34:36.353Z,-1.61
2018-03-21T03:37:10.210Z,-1.68
2018-03-21T03:39:43.942Z,-1.73
2018-03-21T03:42:17.517Z,-1.81
2018-03-21T03:44:51.121Z,-1.79
2018-03-21T03:47:24.737Z,-1.75
2018-03-21T03:49:58.397Z,-1.70
2018-03-21T03:52:31.978Z,-1.77
2018-03-21T03:55:05.684Z,-1.89
2018-03-21T03:57:39.282Z,-2.05
2018-03-21T04:00:13.086Z,-2.17
2018-03-21T04:02:46.649Z,-2.27
2018-03-21T04:05:20.349Z,-2.38
2018-03-21T04:07:54.102Z,-2.48
2018-03-21T04:10:27.757Z,-2.56
2018-03-21T04:13:01.338Z,-2.62
2018-03-21T04:15:34.930Z,-2.71
2018-03-21T04:18:09.007Z,-2.74
2018-03-21T04:20:42.688Z,-2.80
2018-03-21T04:23:16.300Z,-2.82
2018-03-21T04:25:49.841Z,-2.83
2018-03-21T04:28:23.462Z,-2.91
2018-03-21T04:30:57.129Z,-2.96
2018-03-21T04:33:30.712Z,-3.00
2018-03-21T04:36:04.249Z,-3.02
2018-03-21T04:38:37.913Z,-3.00
2018-03-21T04:41:11.533Z,-3.02
2018-03-21T04:43:45.082Z,-2.97
2018-03-21T04:46:18.721Z,-3.00
2018-03-21T04:48:52.368Z,-2.98
2018-03-21T04:51:25.903Z,-2.99
2018-03-21T04:53:59.465Z,-2.99
2018-03-21T04:56:33.241Z,-2.98
2018-03-21T04:59:06.779Z,-3.00
2018-03-21T05:01:40.542Z,-3.04
2018-03-21T05:04:14.247Z,-3.05
2018-03-21T05:06:47.789Z,-3.08
2018-03-21T05:09:21.383Z,-3.11
2018-03-21T05:11:55.167Z,-3.14
2018-03-21T05:14:28.893Z,-3.16
2018-03-21T05:17:02.661Z,-3.19
2018-03-21T05:19:36.206Z,-3.20
2018-03-21T05:22:09.764Z,-3.18
2018-03-21T05:24:43.266Z,-3.16
2018-03-21T05:27:17.050Z,-3.17
2018-03-21T05:29:50.629Z,-3.15
2018-03-21T05:32:24.401Z,-3.08
2018-03-21T05:34:58.546Z,-3.08
2018-03-21T05:37:32.245Z,-3.07
2018-03-21T05:40:05.827Z,-3.04
2018-03-21T05:42:39.538Z,-3.01
2018-03-21T05:45:13.073Z,-2.98
2018-03-21T05:47:46.741Z,-2.92
2018-03-21T05:50:21.201Z,-2.85
2018-03-21T05:52:54.890Z,-2.77
2018-03-21T05:55:28.537Z,-2.70
2018-03-21T05:58:02.154Z,-2.64
2018-03-21T06:00:35.878Z,-2.58
2018-03-21T06:03:09.683Z,-2.50
2018-03-21T06:05:43.339Z,-2.38
2018-03-21T06:08:16.970Z,-2.24
2018-03-21T06:10:50.573Z,-2.15
2018-03-21T06:13:24.283Z,-2.11
2018-03-21T06:15:57.872Z,-2.07
2018-03-21T06:18:31.602Z,-2.05
2018-03-21T06:21:05.198Z,-2.01
2018-03-21T06:23:39.005Z,-1.99
2018-03-21T06:26:12.557Z,-1.96
2018-03-21T06:28:46.197Z,-1.90
2018-03-21T06:31:19.763Z,-1.85
2018-03-21T06:33:53.405Z,-1.77
2018-03-21T06:36:27.250Z,-1.71
2018-03-21T06:39:00.947Z,-1.65
2018-03-21T06:41:34.545Z,-1.53
2018-03-21T06:44:08.116Z,-1.43
2018-03-21T06:46:41.738Z,-1.33
2018-03-21T06:49:15.294Z,-1.19
2018-03-21T06:51:48.894Z,-0.98
2018-03-21T06:54:22.619Z,-0.71
2018-03-21T06:56:56.421Z,-0.29
2018-03-21T06:59:30.031Z,1.54
2018-03-21T07:02:03.693Z,4.18
2018-03-21T07:04:37.466Z,6.49
2018-03-21T07:07:11.150Z,8.21
2018-03-21T07:09:44.674Z,8.08
2018-03-21T07:12:18.430Z,8.39
2018-03-21T07:15:03.844Z,9.64
2018-03-21T07:17:37.610Z,8.28
2018-03-21T07:20:11.181Z,8.08
2018-03-21T07:22:44.814Z,9.06
2018-03-21T07:25:18.345Z,9.47
2018-03-21T07:27:51.897Z,9.07
2018-03-21T07:30:25.448Z,8.40
2018-03-21T07:32:59.002Z,7.76
2018-03-21T07:35:32.629Z,7.04
2018-03-21T07:38:06.157Z,7.38
2018-03-21T07:40:39.833Z,7.08
2018-03-21T07:43:13.462Z,6.36
2018-03-21T07:45:47.030Z,6.81
2018-03-21T07:48:20.594Z,7.50
2018-03-21T07:50:54.135Z,8.65
2018-03-21T07:53:27.749Z,8.73
2018-03-21T07:56:01.479Z,8.51
2018-03-21T07:58:35.062Z,8.28
2018-03-21T08:01:08.727Z,8.20
2018-03-21T08:03:42.449Z,8.04
2018-03-21T08:06:16.225Z,8.06
2018-03-21T08:08:49.791Z,7.98
2018-03-21T08:11:23.514Z,7.78
2018-03-21T08:13:57.196Z,7.97
2018-03-21T08:16:30.787Z,7.31
2018-03-21T08:19:04.401Z,6.67
2018-03-21T08:21:38.103Z,5.45
2018-03-21T08:24:11.655Z,4.84
2018-03-21T08:26:45.406Z,3.70
2018-03-21T08:29:19.058Z,2.76
2018-03-21T08:31:52.863Z,1.99
2018-03-21T08:34:26.609Z,1.53
2018-03-21T08:37:00.138Z,0.61
2018-03-21T08:39:33.839Z,0.74
2018-03-21T08:42:07.578Z,0.49
2018-03-21T08:44:41.215Z,0.45
2018-03-21T08:47:14.973Z,0.38
2018-03-21T08:49:48.619Z,0.24
2018-03-21T08:52:22.442Z,-0.13
2018-03-21T08:54:56.220Z,-0.16
2018-03-21T08:57:29.782Z,0.06
2018-03-21T09:00:03.479Z,-0.10
2018-03-21T09:02:37.191Z,-0.16
2018-03-21T09:05:10.858Z,-0.18
2018-03-21T09:07:44.502Z,-0.50
2018-03-21T09:10:18.223Z,-0.51
2018-03-21T09:12:51.802Z,-0.12
2018-03-21T09:15:25.510Z,-0.18
2018-03-21T09:17:59.096Z,0.04
2018-03-21T09:20:32.753Z,0.27
2018-03-21T09:23:06.330Z,0.07
2018-03-21T09:25:40.030Z,-0.12
2018-03-21T09:28:13.766Z,-0.41
2018-03-21T09:30:47.365Z,-0.63
2018-03-21T09:33:21.050Z,-0.13
2018-03-21T09:35:54.645Z,-0.12
2018-03-21T09:38:28.255Z,0.00
2018-03-21T09:41:01.862Z,0.08
2018-03-21T09:43:35.467Z,0.10
2018-03-21T09:46:09.142Z,0.28
2018-03-21T09:48:42.687Z,0.21
2018-03-21T09:51:16.270Z,0.35
2018-03-21T09:53:50.025Z,0.42
2018-03-21T09:56:23.567Z,0.28
2018-03-21T09:58:57.162Z,0.27
2018-03-21T10:01:30.694Z,0.41
2018-03-21T10:04:04.226Z,0.53
2018-03-21T10:06:37.794Z,0.53
2018-03-21T10:09:11.436Z,0.89
2018-03-21T10:11:45.242Z,0.71
2018-03-21T10:14:18.752Z,0.47
2018-03-21T10:16:52.407Z,0.34
2018-03-21T10:19:25.989Z,0.27
2018-03-21T10:21:59.763Z,0.34
2018-03-21T10:24:33.445Z,0.15
2018-03-21T10:27:07.105Z,0.52
2018-03-21T10:29:40.910Z,0.09
2018-03-21T10:32:14.473Z,0.50
2018-03-21T10:34:48.204Z,0.56
2018-03-21T10:37:21.846Z,0.65
2018-03-21T10:39:55.488Z,0.66
2018-03-21T10:42:29.214Z,0.66
2018-03-21T10:45:02.793Z,0.90
2018-03-21T10:47:36.426Z,0.84
2018-03-21T10:50:10.017Z,0.91
2018-03-21T10:52:43.538Z,0.87
2018-03-21T10:55:17.269Z,0.93
2018-03-21T10:57:50.851Z,1.36
2018-03-21T11:00:24.386Z,1.14
2018-03-21T11:03:02.902Z,1.18
2018-03-21T11:05:36.554Z,1.80
2018-03-21T11:08:10.179Z,1.98
2018-03-21T11:10:43.801Z,1.81
2018-03-21T11:13:17.638Z,1.86
2018-03-21T11:15:51.467Z,1.46
2018-03-21T11:18:24.998Z,1.76
2018-03-21T11:20:58.510Z,1.90
2018-03-21T11:23:32.186Z,1.81
2018-03-21T11:26:05.946Z,1.88
2018-03-21T11:28:39.517Z,1.59
2018-03-21T11:31:13.038Z,1.56
2018-03-21T11:33:46.657Z,1.52
2018-03-21T11:36:20.317Z,1.34
2018-03-21T11:38:53.849Z,1.20
2018-03-21T11:41:27.410Z,1.20
2018-03-21T11:44:00.970Z,0.86
2018-03-21T11:46:34.597Z,0.97
2018-03-21T11:49:08.146Z,1.18
2018-03-21T11:51:41.679Z,1.32
2018-03-21T11:54:15.457Z,1.34
2018-03-21T11:56:49.174Z,1.90
2018-03-21T11:59:22.874Z,2.03
2018-03-21T12:01:56.454Z,2.29
2018-03-21T12:04:30.022Z,2.42
2018-03-21T12:07:03.872Z,2.67
2018-03-21T12:09:37.783Z,2.76
2018-03-21T12:12:11.430Z,2.10
2018-03-21T12:14:45.032Z,2.14
2018-03-21T12:17:18.743Z,2.29
2018-03-21T12:19:52.350Z,2.41
2018-03-21T12:22:26.082Z,2.56
2018-03-21T12:24:59.677Z,2.75
2018-03-21T12:27:33.241Z,3.04
2018-03-21T12:30:06.798Z,2.75
2018-03-21T12:32:40.485Z,2.45
2018-03-21T12:35:14.055Z,3.09
2018-03-21T12:37:47.722Z,3.19
2018-03-21T12:40:21.294Z,2.86
2018-03-21T12:42:54.974Z,3.16
2018-03-21T12:45:28.757Z,3.45
2018-03-21T12:48:02.421Z,3.86
2018-03-21T12:50:35.940Z,3.72
2018-03-21T12:53:09.485Z,4.24
2018-03-21T12:55:43.071Z,4.45
2018-03-21T12:58:16.822Z,4.88
2018-03-21T13:00:50.367Z,4.89
2018-03-21T13:03:23.970Z,5.01
2018-03-21T13:05:57.545Z,5.75
2018-03-21T13:08:31.245Z,4.72
2018-03-21T13:11:04.941Z,4.15
2018-03-21T13:13:38.586Z,4.40
2018-03-21T13:16:12.266Z,4.37
2018-03-21T13:18:46.038Z,4.36
2018-03-21T13:21:19.781Z,4.27
2018-03-21T13:23:53.386Z,4.13
2018-03-21T13:26:27.022Z,4.10
2018-03-21T13:29:00.649Z,4.17
2018-03-21T13:31:34.263Z,4.46
2018-03-21T13:34:08.011Z,4.47
2018-03-21T13:36:41.601Z,4.61
2018-03-21T13:39:15.243Z,5.04
2018-03-21T13:41:48.780Z,5.00
2018-03-21T13:44:22.535Z,5.04
2018-03-21T13:46:56.117Z,5.21
2018-03-21T13:49:29.701Z,5.08
2018-03-21T13:52:03.250Z,5.31
2018-03-21T13:54:36.757Z,5.28
2018-03-21T13:57:22.693Z,5.04
2018-03-21T13:59:56.413Z,4.91
2018-03-21T14:02:30.045Z,4.86
2018-03-21T14:05:03.740Z,4.94
2018-03-21T14:07:37.356Z,4.50
2018-03-21T14:10:10.945Z,4.62
2018-03-21T14:12:44.449Z,4.75
2018-03-21T14:15:17.983Z,4.87
2018-03-21T14:17:51.569Z,4.77
2018-03-21T14:20:25.113Z,4.62
2018-03-21T14:22:58.931Z,4.55
2018-03-21T14:25:32.537Z,4.55
2018-03-21T14:28:06.061Z,4.72
2018-03-21T14:30:39.601Z,5.16
2018-03-21T14:33:13.297Z,4.71
2018-03-21T14:35:46.859Z,4.30
2018-03-21T14:38:20.394Z,4.83
2018-03-21T14:40:53.978Z,4.88
2018-03-21T14:43:27.508Z,4.89
2018-03-21T14:46:01.158Z,5.59
2018-03-21T14:48:34.783Z,6.21
2018-03-21T14:51:08.434Z,6.00
2018-03-21T14:53:42.129Z,7.23
2018-03-21T14:56:15.782Z,7.36
2018-03-21T14:58:49.579Z,7.31
2018-03-21T15:01:23.197Z,6.67
2018-03-21T15:03:56.777Z,6.72
2018-03-21T15:06:30.317Z,7.18
2018-03-21T15:09:03.898Z,6.33
2018-03-21T15:11:37.673Z,6.12
2018-03-21T15:14:11.267Z,5.77
2018-03-21T15:16:44.955Z,5.72
2018-03-21T15:19:18.790Z,5.61
2018-03-21T15:21:52.392Z,5.33
2018-03-21T15:24:25.997Z,5.49
2018-03-21T15:26:59.686Z,5.36
2018-03-21T15:29:33.503Z,5.13
2018-03-21T15:32:07.073Z,5.29
2018-03-21T15:34:40.950Z,5.11
2018-03-21T15:37:14.585Z,5.17
2018-03-21T15:39:48.232Z,5.37
2018-03-21T15:42:21.873Z,5.38
2018-03-21T15:44:55.686Z,5.16
2018-03-21T15:47:29.232Z,4.84
2018-03-21T15:50:02.845Z,4.83
2018-03-21T15:52:36.505Z,4.88
2018-03-21T15:55:10.185Z,4.80
2018-03-21T15:57:43.818Z,4.85
2018-03-21T16:00:17.375Z,4.75
2018-03-21T16:02:50.928Z,4.77
2018-03-21T16:05:24.606Z,4.80
2018-03-21T16:07:58.185Z,4.51
2018-03-21T16:10:31.830Z,4.55
2018-03-21T16:13:05.607Z,4.68
2018-03-21T16:15:39.154Z,4.73
2018-03-21T16:18:12.762Z,4.47
2018-03-21T16:20:46.395Z,4.45
2018-03-21T16:23:19.936Z,4.39
2018-03-21T16:25:53.657Z,4.42
2018-03-21T16:28:27.187Z,4.51
2018-03-21T16:31:00.938Z,4.37
2018-03-21T16:33:34.502Z,4.45
2018-03-21T16:36:08.124Z,4.42
2018-03-21T16:38:41.841Z,4.55
2018-03-21T16:41:15.494Z,4.70
2018-03-21T16:43:49.010Z,5.03
2018-03-21T16:46:22.565Z,5.09
2018-03-21T16:48:56.286Z,4.86
2018-03-21T16:51:29.994Z,4.92
2018-03-21T16:54:04.004Z,4.57
2018-03-21T16:56:37.489Z,4.33
2018-03-21T16:59:11.293Z,4.10
2018-03-21T17:01:44.827Z,3.91
2018-03-21T17:04:18.401Z,3.92
2018-03-21T17:06:52.162Z,3.88
2018-03-21T17:09:25.702Z,3.60
2018-03-21T17:11:59.326Z,3.48
2018-03-21T17:14:32.989Z,3.37
2018-03-21T17:17:06.519Z,3.23
2018-03-21T17:19:40.255Z,3.18
2018-03-21T17:22:13.814Z,3.11
2018-03-21T17:24:47.558Z,3.02
2018-03-21T17:27:21.154Z,3.01
2018-03-21T17:29:54.937Z,2.97
2018-03-21T17:32:28.681Z,2.94
2018-03-21T17:35:02.468Z,2.92
2018-03-21T17:37:36.272Z,2.92
2018-03-21T17:40:09.921Z,2.98
2018-03-21T17:42:43.495Z,2.96
2018-03-21T17:45:17.029Z,2.98
2018-03-21T17:47:50.614Z,2.95
2018-03-21T17:50:24.195Z,2.96
2018-03-21T17:52:57.779Z,2.92
2018-03-21T17:55:31.409Z,2.88
2018-03-21T17:58:04.966Z,2.84
2018-03-21T18:00:38.622Z,2.79
2018-03-21T18:03:12.273Z,2.74
2018-03-21T18:05:45.849Z,2.75
2018-03-21T18:08:19.589Z,2.68
2018-03-21T18:10:53.342Z,2.62
2018-03-21T18:13:26.868Z,2.51
2018-03-21T18:16:00.413Z,2.50
2018-03-21T18:18:34.003Z,2.42
2018-03-21T18:21:07.636Z,2.37
2018-03-21T18:23:41.158Z,2.24
2018-03-21T18:26:14.861Z,2.24
2018-03-21T18:28:48.673Z,2.29
2018-03-21T18:31:22.295Z,2.30
2018-03-21T18:33:55.858Z,2.38
2018-03-21T18:36:29.477Z,2.38
2018-03-21T18:39:03.055Z,2.38
2018-03-21T18:41:36.581Z,2.38
2018-03-21T18:44:10.430Z,2.33
2018-03-21T18:46:43.938Z,2.44
2018-03-21T18:49:17.635Z,2.48
2018-03-21T18:51:51.323Z,2.53
2018-03-21T18:54:25.054Z,2.53
2018-03-21T18:56:58.777Z,2.62
2018-03-21T18:59:32.526Z,2.76
2018-03-21T19:02:06.251Z,2.74
2018-03-21T19:04:39.938Z,2.76
2018-03-21T19:07:13.553Z,2.75
2018-03-21T19:09:47.255Z,2.78
2018-03-21T19:12:20.846Z,2.75
2018-03-21T19:14:54.607Z,2.86
2018-03-21T19:17:28.321Z,2.89
2018-03-21T19:20:01.908Z,2.91
2018-03-21T19:22:35.606Z,2.92
2018-03-21T19:25:09.327Z,2.96
2018-03-21T19:27:42.851Z,2.99
2018-03-21T19:30:16.587Z,2.94
2018-03-21T19:32:50.286Z,2.95
2018-03-21T19:35:24.047Z,2.96
2018-03-21T19:37:57.807Z,2.84
2018-03-21T19:40:31.466Z,2.90
2018-03-21T19:43:05.183Z,2.83
2018-03-21T19:45:38.959Z,2.81
2018-03-21T19:48:12.566Z,2.87
2018-03-21T19:50:46.262Z,2.81
2018-03-21T19:53:20.001Z,2.79
2018-03-21T19:55:53.691Z,2.87
2018-03-21T19:58:27.383Z,2.77
2018-03-21T20:01:01.048Z,2.76
2018-03-21T20:03:34.682Z,2.77
2018-03-21T20:06:08.409Z,2.67
2018-03-21T20:08:42.126Z,2.62
2018-03-21T20:11:15.715Z,2.60
2018-03-21T20:13:49.437Z,2.59
2018-03-21T20:16:23.006Z,2.50
2018-03-21T20:18:56.607Z,2.46
2018-03-21T20:21:30.310Z,2.39
2018-03-21T20:24:04.010Z,2.36
2018-03-21T20:26:37.732Z,2.34
2018-03-21T20:29:11.315Z,2.25
2018-03-21T20:31:44.957Z,2.21
2018-03-21T20:34:18.698Z,2.27
2018-03-21T20:36:52.350Z,2.27
2018-03-21T20:39:25.959Z,2.32
2018-03-21T20:41:59.537Z,2.23
2018-03-21T20:44:33.187Z,2.20
2018-03-21T20:47:06.734Z,2.15
2018-03-21T20:49:40.318Z,2.02
2018-03-21T20:52:13.975Z,1.99
2018-03-21T20:54:47.686Z,1.96
2018-03-21T20:57:21.527Z,1.93
2018-03-21T20:59:55.346Z,1.97
2018-03-21T21:02:28.970Z,1.97
2018-03-21T21:05:02.598Z,2.05
2018-03-21T21:07:36.181Z,2.19
2018-03-21T21:10:09.827Z,2.22
2018-03-21T21:12:43.438Z,2.30
2018-03-21T21:15:16.984Z,2.27
2018-03-21T21:17:50.825Z,2.30
2018-03-21T21:20:24.666Z,2.37
2018-03-21T21:22:58.211Z,2.35
2018-03-21T21:25:31.923Z,2.25
2018-03-21T21:28:05.574Z,2.18
2018-03-21T21:30:39.229Z,2.17
2018-03-21T21:33:12.955Z,2.11
2018-03-21T21:35:46.783Z,2.09
2018-03-21T21:38:20.466Z,2.12
2018-03-21T21:40:54.122Z,2.15
2018-03-21T21:43:27.722Z,2.13
2018-03-21T21:46:01.307Z,2.11
2018-03-21T21:48:35.228Z,2.03
2018-03-21T21:51:09.009Z,2.10
2018-03-21T21:53:42.711Z,2.08
2018-03-21T21:56:16.351Z,2.01
2018-03-21T21:58:50.142Z,1.87
2018-03-21T22:01:23.710Z,1.86
2018-03-21T22:03:57.430Z,1.76
2018-03-21T22:06:31.139Z,1.70
2018-03-21T22:09:04.738Z,1.62
2018-03-21T22:11:38.499Z,1.53
2018-03-21T22:14:12.234Z,1.55
2018-03-21T22:16:45.807Z,1.47
2018-03-21T22:19:19.498Z,1.44
2018-03-21T22:21:53.122Z,1.42
2018-03-21T22:24:26.826Z,1.38
2018-03-21T22:27:00.590Z,1.37
2018-03-21T22:29:34.149Z,1.35
2018-03-21T22:32:07.788Z,1.32
2018-03-21T22:34:41.591Z,1.27
2018-03-21T22:37:15.179Z,1.24
2018-03-21T22:39:49.018Z,1.25
2018-03-21T22:42:22.790Z,1.27
2018-03-21T22:44:56.446Z,1.25
2018-03-21T22:47:30.162Z,1.14
2018-03-21T22:50:03.777Z,1.08
2018-03-21T22:52:37.366Z,1.05
2018-03-21T22:55:10.959Z,1.10
2018-03-21T22:57:44.742Z,1.14
2018-03-21T23:00:18.529Z,1.16
2018-03-21T23:02:52.238Z,1.21
2018-03-21T23:05:25.798Z,1.18
2018-03-21T23:07:59.473Z,1.16
2018-03-21T23:10:33.069Z,1.17
2018-03-21T23:13:06.754Z,1.24
2018-03-21T23:15:40.377Z,1.23
2018-03-21T23:18:13.943Z,1.27
2018-03-21T23:20:47.692Z,1.36
2018-03-21T23:23:21.242Z,1.34
2018-03-21T23:25:55.018Z,1.44
2018-03-21T23:28:28.706Z,1.42
2018-03-21T23:31:02.531Z,1.50
2018-03-21T23:33:36.111Z,1.53
2018-03-21T23:36:09.786Z,1.58
2018-03-21T23:38:43.392Z,1.60
2018-03-21T23:41:17.021Z,1.59
2018-03-21T23:43:50.771Z,1.54
2018-03-21T23:46:24.388Z,1.58
2018-03-21T23:48:57.991Z,1.63
2018-03-21T23:51:31.759Z,1.63
2018-03-21T23:54:05.326Z,1.70
2018-03-21T23:56:38.945Z,1.73
2018-03-21T23:59:12.642Z,1.64
